Data for 08/25/2007

Time Sea-Level Adjusted Pressure Absolute Pressure Temperature Relative Humidity Dew Point   
(mb) (inHg) (mb) (inHg) (C) (F) (%) (C) (F)
00:05 1017 30.03 847 25.01 13.6 56.4 43 1.3 34.3
00:10 1017 30.03 847 25.01 13.7 56.6 44 1.6 34.9
00:15 1017 30.03 847 25.01 13.6 56.4 44 1.5 34.7
00:20 1017 30.03 847 25.01 13.4 56.1 45 1.7 35
00:25 1017 30.03 847 25.01 13.3 55.9 45 1.6 34.8
00:30 1017 30.03 847 25.01 13.3 55.9 45 1.8 35.2
00:35 1017 30.03 847 25.01 13.2 55.8 45 1.7 35.1
00:40 1017 30.03 847 25.01 13.1 55.5 46 1.8 35.2
00:45 1017 30.03 847 25.01 12.9 55.2 47 2 35.6
00:50 1017 30.03 847 25.01 12.7 54.9 48 2.1 35.8
00:55 1017 30.03 847 25.01 12.4 54.4 49 2 35.5
01:00 1017 30.03 847 25.01 12.7 54.9 46 1.6 34.9
01:05 1017 30.03 847 25.01 13 55.4 45 1.4 34.6
01:10 1017 30.03 847 25.01 13.3 55.9 44 1.3 34.3
01:15 1017 30.03 847 25.01 13.5 56.3 43 1.3 34.3
01:20 1017 30.03 847 25.01 13.6 56.4 43 1.1 34
01:25 1017 30.03 847 25.01 13.6 56.4 43 1.2 34.2
01:30 1017 30.03 847 25.01 13.6 56.4 43 1.4 34.5
01:35 1017 30.03 847 25.01 13.4 56.1 44 1.4 34.6
01:40 1017 30.03 847 25.01 13.4 56 44 1.6 34.8
01:45 1017 30.03 847 25.01 13 55.5 46 1.7 35.1
01:50 1017 30.03 847 25.01 12.8 55.1 47 1.8 35.2
01:55 1017 30.03 847 25.01 12.8 55 47 1.9 35.4
02:00 1017 30.03 847 25.01 12.9 55.2 47 2 35.6
02:05 1017 30.03 847 25.01 13 55.4 47 2.1 35.7
02:10 1017 30.03 847 25.01 13.1 55.6 47 2.2 36
02:15 1017 30.03 847 25.01 13.1 55.6 48 2.4 36.4
02:20 1017 30.03 847 25.01 12.9 55.3 49 2.4 36.3
02:25 1017 30.03 847 25.01 12.8 55.1 48 2.3 36.2
02:30 1017 30.03 847 25.01 13 55.3 49 2.5 36.4
02:35 1017 30.03 847 25.01 12.9 55.2 49 2.5 36.6
02:40 1017 30.03 847 25.01 12.6 54.7 50 2.6 36.7
02:45 1017 30.03 846 24.98 12.5 54.6 50 2.5 36.6
02:50 1017 30.03 846 24.98 12.3 54.2 51 2.6 36.7
02:55 1017 30.03 847 25.01 12.1 53.7 53 2.8 37
03:00 1017 30.03 846 24.98 12 53.5 53 2.6 36.8
03:05 1017 30.03 846 24.98 12 53.6 52 2.6 36.7
03:10 1017 30.03 846 24.98 12.1 53.8 52 2.6 36.8
03:15 1017 30.03 846 24.98 12.1 53.8 52 2.6 36.7
03:20 1017 30.03 846 24.98 12.1 53.8 52 2.5 36.6
03:25 1017 30.03 846 24.98 12.1 53.8 52 2.7 36.8
03:30 1017 30.03 846 24.98 12 53.5 53 2.7 36.8
03:35 1017 30.03 846 24.98 11.7 53 54 2.6 36.7
03:40 1017 30.03 846 24.98 11.5 52.6 54 2.6 36.6
03:45 1017 30.03 846 24.98 11.3 52.3 54 2.3 36.1
03:50 1017 30.03 846 24.98 11.4 52.5 54 2.3 36.2
03:55 1017 30.03 846 24.98 11.4 52.6 54 2.4 36.3
04:00 1017 30.03 846 24.98 11.4 52.5 54 2.4 36.4
04:05 1017 30.03 846 24.98 11.3 52.4 54 2.5 36.5
04:10 1017 30.03 846 24.98 11.5 52.6 54 2.4 36.4
04:15 1017 30.03 846 24.98 11.4 52.5 54 2.5 36.5
04:20 1017 30.03 846 24.98 11.3 52.3 54 2.4 36.3
04:25 1017 30.03 846 24.98 11.1 52 55 2.4 36.4
04:30 1017 30.03 846 24.98 11.1 51.9 55 2.4 36.3
04:35 1017 30.03 846 24.98 11.1 52.1 55 2.4 36.3
04:40 1017 30.03 846 24.98 11.1 51.9 55 2.3 36.2
04:45 1017 30.03 846 24.98 11 51.7 56 2.5 36.4
04:50 1017 30.03 846 24.98 10.9 51.6 56 2.4 36.4
04:55 1017 30.03 846 24.98 10.9 51.7 56 2.5 36.5
05:00 1017 30.03 846 24.98 10.9 51.6 56 2.5 36.4
05:05 1017 30.03 846 24.98 10.7 51.3 56 2.4 36.2
05:10 1017 30.03 846 24.98 10.8 51.4 56 2.4 36.2
05:15 1017 30.03 846 24.98 10.9 51.5 55 2.3 36.1
05:20 1017 30.03 846 24.98 11 51.7 54 2.1 35.7
05:25 1017 30.03 846 24.98 11.1 52 55 2.4 36.3
05:30 1017 30.03 846 24.98 11.1 52 55 2.3 36.2
05:35 1017 30.03 846 24.98 11.1 52 54 2.2 36
05:40 1017 30.03 846 24.98 11.1 51.9 55 2.4 36.2
05:45 1017 30.03 846 24.98 11 51.7 55 2.2 36
05:50 1017 30.03 846 24.98 11 51.8 55 2.4 36.3
05:55 1017 30.03 846 24.98 10.9 51.6 55 2.2 36
06:00 1017 30.03 846 24.98 11 51.8 55 2.4 36.3
06:05 1017 30.03 846 24.98 10.9 51.5 56 2.4 36.3
06:10 1017 30.03 846 24.98 10.8 51.4 56 2.3 36.2
06:15 1017 30.03 846 24.98 10.6 51.1 56 2.2 36
06:20 1017 30.03 846 24.98 10.9 51.6 55 2.3 36.2
06:25 1017 30.03 846 24.98 10.6 51.1 57 2.4 36.4
06:30 1017 30.03 846 24.98 10.4 50.7 57 2.3 36.2
06:35 1017 30.03 846 24.98 10.4 50.6 56 2 35.5
06:40 1017 30.03 846 24.98 10.1 50.1 57 1.9 35.5
06:45 1017 30.03 846 24.98 10.6 51.1 53 1.6 34.8
06:50 1017 30.03 846 24.98 10.9 51.6 54 2 35.6
06:55 1017 30.03 846 24.98 11.1 52 52 1.7 35
07:00 1017 30.03 846 24.98 11.3 52.3 51 1.6 34.8
07:05 1017 30.03 846 24.98 11.1 52 53 1.9 35.4
07:10 1017 30.03 846 24.98 10.7 51.3 55 2.1 35.7
07:15 1017 30.03 846 24.98 10.4 50.8 55 1.9 35.4
07:20 1017 30.03 846 24.98 10.4 50.7 55 1.9 35.4
07:25 1017 30.03 846 24.98 10.4 50.6 55 1.8 35.3
07:30 1017 30.03 846 24.98 10.6 51.1 55 2 35.6
07:35 1017 30.03 846 24.98 11.3 52.3 53 2 35.6
07:40 1017 30.03 846 24.98 11.4 52.6 51 1.8 35.2
07:45 1017 30.03 846 24.98 11.9 53.4 50 2 35.5
07:50 1017 30.03 846 24.98 12 53.6 50 1.9 35.5
07:55 1017 30.03 846 24.98 12.4 54.2 47 1.4 34.6
08:00 1017 30.03 846 24.98 12.7 54.9 49 2.4 36.3
08:05 1017 30.03 846 24.98 12.5 54.6 51 2.7 36.8
08:10 1017 30.03 846 24.98 12.3 54.2 52 2.9 37.2
08:15 1017 30.03 846 24.98 12.2 54 52 2.7 36.9
08:20 1017 30.03 846 24.98 12.2 53.9 54 3.3 38
08:25 1017 30.03 846 24.98 12.1 53.8 54 3.2 37.8
08:30 1017 30.03 846 24.98 12.5 54.5 52 3.1 37.6
08:35 1017 30.03 846 24.98 13.2 55.8 51 3.3 37.9
08:40 1017 30.03 846 24.98 13.7 56.6 48 3.1 37.5
08:45 1017 30.03 846 24.98 14.3 57.7 47 3.2 37.8
08:50 1017 30.03 846 24.98 14.8 58.7 45 3 37.4
08:55 1017 30.03 846 24.98 15.1 59.1 47 3.8 38.9
09:00 1017 30.03 846 24.98 15.4 59.6 44 3.3 38
09:05 1017 30.03 846 24.98 15.6 60.1 45 3.9 39
09:10 1017 30.03 846 24.98 15.7 60.3 45 4 39.1
09:15 1017 30.03 846 24.98 16.1 60.9 44 3.9 39.1
09:20 1017 30.03 846 24.98 16.4 61.6 43 4 39.2
09:25 1017 30.03 846 24.98 17.2 62.9 39 3.3 38
09:30 1017 30.03 846 24.98 18.1 64.5 38 3.6 38.5
09:35 1017 30.03 846 24.98 18.4 65.1 31 1.2 34.2
09:40 1017 30.03 846 24.98 18.6 65.5 32 1.7 35.1
09:45 1017 30.03 846 24.98 19.1 66.5 32 2.2 36
09:50 1017 30.03 846 24.98 18.8 65.8 35 3 37.5
09:55 1017 30.03 846 24.98 18.5 65.2 33 2.2 36
10:00 1017 30.03 846 24.98 18.7 65.7 34 2.5 36.5
10:05 1017 30.03 846 24.98 18.9 66.1 34 2.8 37.1
10:10 1017 30.03 846 24.98 19.9 67.9 32 2.8 37.1
10:15 1017 30.03 846 24.98 20.2 68.3 32 3.1 37.6
10:20 1017 30.03 846 24.98 20.2 68.4 29 2 35.6
10:25 1017 30.03 846 24.98 20.3 68.5 31 2.5 36.6
10:30 1017 30.03 846 24.98 20.5 69 31 2.9 37.1
10:35 1017 30.03 846 24.98 21.5 70.8 27 1.8 35.2
10:40 1017 30.03 846 24.98 22.2 71.9 27 2.5 36.5
10:45 1017 30.03 846 24.98 21.6 70.8 29 2.8 37.1
10:50 1017 30.03 846 24.98 21.2 70.2 28 2.2 35.9
10:55 1017 30.03 846 24.98 21.3 70.4 29 2.7 36.8
11:00 1017 30.03 846 24.98 21.5 70.7 28 2.5 36.5
11:05 1017 30.03 846 24.98 22.4 72.4 26 1.9 35.5
11:10 1017 30.03 846 24.98 22.1 71.7 27 2.1 35.9
11:15 1017 30.03 846 24.98 22.1 71.9 28 3.2 37.7
11:20 1017 30.03 846 24.98 21.8 71.2 29 3 37.3
11:25 1017 30.03 846 24.98 22.1 71.8 28 3.1 37.6
11:30 1016 30 846 24.98 21.9 71.4 28 2.8 37
11:35 1016 30 846 24.98 22.3 72.2 26 2.1 35.7
11:40 1016 30 846 24.98 22.2 72 27 2.5 36.5
11:45 1016 30 846 24.98 22.4 72.3 27 2.5 36.4
11:50 1016 30 846 24.98 22.8 73 25 2.1 35.8
11:55 1016 30 845 24.95 23.8 74.9 24 2.4 36.4
12:00 1016 30 845 24.95 24.1 75.4 25 2.8 37
12:05 1016 30 845 24.95 23.4 74.2 26 2.8 37.1
12:10 1016 30 845 24.95 23.8 74.9 24 2.5 36.5
12:15 1016 30 845 24.95 24.6 76.2 23 2.2 36
12:20 1016 30 845 24.95 24.4 75.8 23 2 35.6
12:25 1016 30 845 24.95 25.7 78.2 19 0.5 33
12:30 1016 30 845 24.95 26.2 79.2 20 1.5 34.7
12:35 1016 30 845 24.95 25.5 77.9 21 2.2 35.9
12:40 1016 30 845 24.95 25.2 77.3 21 1.6 34.9
12:45 1015 29.97 845 24.95 26.2 79.1 20 1.6 34.9
12:50 1015 29.97 845 24.95 26.9 80.4 19 1.4 34.6
12:55 1015 29.97 844 24.92 27.1 80.8 19 1.8 35.2
13:00 1015 29.97 844 24.92 26.9 80.5 18 0.8 33.4
13:05 1015 29.97 844 24.92 27.6 81.7 18 1.3 34.3
13:10 1015 29.97 844 24.92 27.4 81.3 17 0.4 32.7
13:15 1015 29.97 844 24.92 27.2 81 16 -0.8 30.6
13:20 1015 29.97 844 24.92 27.9 82.3 15 -0.4 31.2
13:25 1015 29.97 844 24.92 28.6 83.4 15 -0.2 31.6
13:30 1015 29.97 844 24.92 28.4 83.2 15 -0 31.9
13:35 1015 29.97 844 24.92 28.9 84.1 15 -0.2 31.7
13:40 1015 29.97 844 24.92 30 86.1 15 0.6 33.1
13:45 1015 29.97 844 24.92 30.4 86.6 13 -0.5 31.1
13:50 1014 29.94 844 24.92 30 85.9 15 0.5 32.9
13:55 1014 29.94 844 24.92 29.4 84.8 15 0.6 33
14:00 1014 29.94 844 24.92 28.8 83.8 16 0.4 32.8
14:05 1014 29.94 843 24.89 29.3 84.8 14 -1.1 30.1
14:10 1014 29.94 843 24.89 29 84.2 13 -2.4 27.8
14:15 1014 29.94 843 24.89 29 84.2 13 -2.2 28.1
14:20 1014 29.94 843 24.89 29.3 84.8 12 -2.5 27.6
14:25 1014 29.94 843 24.89 29.3 84.7 13 -1.6 29.1
14:30 1014 29.94 843 24.89 29.4 84.9 12 -2.4 27.8
14:35 1014 29.94 843 24.89 29.2 84.5 12 -2.6 27.3
14:40 1014 29.94 843 24.89 29.3 84.7 12 -2.2 28
14:45 1014 29.94 843 24.89 29.4 84.9 13 -2 28.4
14:50 1014 29.94 843 24.89 29.4 84.8 13 -1.9 28.5
14:55 1014 29.94 843 24.89 29.8 85.7 13 -1 30.1
15:00 1014 29.94 843 24.89 29.7 85.5 12 -2.7 27.2
15:05 1014 29.94 843 24.89 29.3 84.7 12 -3.3 26
15:10 1013 29.91 843 24.89 29.2 84.5 12 -2.9 26.7
15:15 1013 29.91 843 24.89 29.4 85 12 -2.8 26.9
15:20 1013 29.91 843 24.89 29.9 85.7 12 -2.5 27.6
15:25 1013 29.91 843 24.89 30 85.9 12 -2.2 28
15:30 1013 29.91 842 24.86 29.8 85.6 12 -2.7 27.1
15:35 1013 29.91 842 24.86 29.8 85.6 12 -2.2 28
15:40 1013 29.91 842 24.86 29.9 85.7 12 -2.5 27.5
15:45 1013 29.91 842 24.86 30.1 86.1 12 -1.9 28.6
15:50 1013 29.91 842 24.86 30 86 12 -2.3 27.8
15:55 1013 29.91 842 24.86 30.3 86.5 12 -2.5 27.5
16:00 1013 29.91 842 24.86 30.5 86.8 11 -2.5 27.5
16:05 1013 29.91 842 24.86 30.1 86.1 13 -1.5 29.3
16:10 1013 29.91 842 24.86 30.5 86.9 12 -2.3 27.9
16:15 1013 29.91 842 24.86 30.8 87.5 12 -1.8 28.7
16:20 1013 29.91 842 24.86 30.5 86.9 12 -1.6 29.1
16:25 1013 29.91 842 24.86 30.5 86.9 12 -2 28.4
16:30 1013 29.91 842 24.86 30.6 87 12 -1.8 28.8
16:35 1013 29.91 842 24.86 30.7 87.2 11 -2.4 27.7
16:40 1012 29.88 842 24.86 30.6 87 11 -2.9 26.8
16:45 1012 29.88 842 24.86 30.5 86.9 11 -2.8 27
16:50 1012 29.88 842 24.86 30.6 87 12 -2.1 28.1
16:55 1012 29.88 841 24.83 30.3 86.5 11 -2.6 27.4
17:00 1012 29.88 841 24.83 30.5 86.8 11 -2.5 27.5
17:05 1012 29.88 841 24.83 30.8 87.4 12 -1.8 28.7
17:10 1012 29.88 841 24.83 30.6 87 11 -2.4 27.7
17:15 1012 29.88 841 24.83 30.5 86.9 11 -3 26.6
17:20 1012 29.88 841 24.83 30.5 87 11 -2.6 27.2
17:25 1012 29.88 841 24.83 30.6 87.1 12 -2.2 28
17:30 1012 29.88 841 24.83 30.8 87.4 11 -2.7 27.1
17:35 1012 29.88 841 24.83 30.8 87.5 11 -2.5 27.5
17:40 1012 29.88 841 24.83 30.8 87.5 11 -2.6 27.4
17:45 1012 29.88 841 24.83 30.7 87.3 11 -2.7 27.1
17:50 1012 29.88 841 24.83 30.7 87.3 11 -2.3 27.8
17:55 1012 29.88 841 24.83 30.7 87.3 12 -1.8 28.8
18:00 1012 29.88 841 24.83 30.8 87.5 11 -2.3 27.9
18:05 1012 29.88 841 24.83 30.7 87.3 11 -2.7 27.2
18:10 1012 29.88 841 24.83 30.5 87 12 -2.1 28.3
18:15 1012 29.88 841 24.83 30.6 87.1 12 -2.1 28.2
18:20 1012 29.88 841 24.83 30.7 87.2 11 -2.6 27.4
18:25 1012 29.88 841 24.83 30.5 87 11 -2.9 26.9
18:30 1012 29.88 841 24.83 30.6 87.1 12 -2.1 28.2
18:35 1012 29.88 841 24.83 30.3 86.5 12 -1.5 29.3
18:40 1011 29.85 841 24.83 29.9 85.8 12 -2.2 28.1
18:45 1011 29.85 841 24.83 29.7 85.4 12 -2.1 28.2
18:50 1011 29.85 841 24.83 29.6 85.3 13 -1.7 28.9
18:55 1011 29.85 841 24.83 29.5 85.1 13 -1.9 28.6
19:00 1011 29.85 841 24.83 29.3 84.8 13 -1.9 28.6
19:05 1011 29.85 841 24.83 29.1 84.5 13 -1.9 28.5
19:10 1011 29.85 841 24.83 29 84.2 13 -1.8 28.8
19:15 1011 29.85 841 24.83 28.9 84 13 -1.7 28.9
19:20 1011 29.85 840 24.81 28.8 83.8 14 -1 30.2
19:25 1011 29.85 841 24.83 28.6 83.5 14 -1.1 30.1
19:30 1011 29.85 841 24.83 28.4 83.1 15 -0.7 30.8
19:35 1011 29.85 840 24.81 28.2 82.8 15 -0.5 31
19:40 1011 29.85 841 24.83 28 82.3 15 -0.4 31.3
19:45 1011 29.85 841 24.83 27.8 82.1 16 -0.1 31.8
19:50 1011 29.85 841 24.83 27.6 81.7 16 0 32
19:55 1011 29.85 841 24.83 27.2 81 16 -0.7 30.8
20:00 1012 29.88 841 24.83 26.8 80.3 17 -0.2 31.6
20:05 1012 29.88 841 24.83 26.5 79.6 20 1.9 35.5
20:10 1012 29.88 841 24.83 25.9 78.7 20 1.3 34.3
20:15 1012 29.88 841 24.83 25.8 78.4 16 -1.4 29.5
20:20 1012 29.88 841 24.83 26.3 79.4 16 -1.2 29.8
20:25 1012 29.88 841 24.83 26.3 79.3 17 -0.4 31.2
20:30 1012 29.88 841 24.83 26.3 79.3 18 0 32.1
20:35 1012 29.88 841 24.83 26.1 79 16 -1 30.1
20:40 1012 29.88 841 24.83 25.9 78.6 17 -0.4 31.3
20:45 1012 29.88 841 24.83 25.7 78.3 17 -0.6 31
20:50 1012 29.88 841 24.83 25.6 78 16 -1.6 29.1
20:55 1012 29.88 841 24.83 25.7 78.2 20 1 33.8
21:00 1012 29.88 841 24.83 25.5 77.9 24 3.9 39
21:05 1012 29.88 841 24.83 25.5 77.8 16 -2.1 28.2
21:10 1012 29.88 841 24.83 25.6 78.1 16 -1.6 29.2
21:15 1012 29.88 841 24.83 25 77 20 1 33.8
21:20 1012 29.88 841 24.83 24.2 75.5 20 -0.1 31.8
21:25 1012 29.88 841 24.83 24.5 76 18 -1.4 29.5
21:30 1012 29.88 841 24.83 24.6 76.2 17 -1.5 29.3
21:35 1012 29.88 841 24.83 24.8 76.6 18 -0.8 30.5
21:40 1012 29.88 841 24.83 24.2 75.6 20 0 32.1
21:45 1012 29.88 841 24.83 23.8 74.9 18 -1.4 29.5
21:50 1012 29.88 841 24.83 23.6 74.4 20 -0.2 31.7
21:55 1012 29.88 841 24.83 23.1 73.5 21 -0.4 31.3
22:00 1012 29.88 841 24.83 22.9 73.3 21 -0.2 31.7
22:05 1012 29.88 841 24.83 22.3 72.2 25 1.3 34.3
22:10 1012 29.88 841 24.83 21.9 71.3 29 3.2 37.7
22:15 1012 29.88 841 24.83 22 71.6 22 -0.5 31.2
22:20 1012 29.88 841 24.83 23 73.5 28 3.7 38.7
22:25 1012 29.88 841 24.83 22.3 72.2 24 0.9 33.7
22:30 1012 29.88 841 24.83 21.9 71.3 29 3.3 37.9
22:35 1012 29.88 841 24.83 21.8 71.3 25 1 33.8
22:40 1012 29.88 841 24.83 21.4 70.4 27 1.8 35.2
22:45 1012 29.88 842 24.86 20 67.9 29 1.5 34.8
22:50 1012 29.88 842 24.86 19.5 67 30 1.4 34.5
22:55 1012 29.88 842 24.86 19.6 67.2 28 0.8 33.4
23:00 1012 29.88 842 24.86 19.8 67.7 27 0.5 32.8
23:05 1012 29.88 842 24.86 20.3 68.5 29 1.6 34.9
23:10 1013 29.91 842 24.86 20.4 68.7 27 0.9 33.6
23:15 1013 29.91 842 24.86 20.1 68.1 27 0.5 32.9
23:20 1013 29.91 842 24.86 20 68.1 28 1.3 34.3
23:25 1013 29.91 842 24.86 19.2 66.6 30 1.5 34.7
23:30 1013 29.91 842 24.86 18.7 65.7 28 -0.2 31.7
23:35 1013 29.91 842 24.86 19.3 66.7 27 -0.2 31.7
23:40 1013 29.91 842 24.86 19.4 66.8 26 -0.4 31.4
23:45 1013 29.91 842 24.86 19.5 67.1 26 -0.2 31.7
23:50 1013 29.91 842 24.86 19.8 67.6 25 -0.6 30.9
23:55 1013 29.91 842 24.86 20 68 24 -1 30.3
24:00 1013 29.91 842 24.86 20.1 68.1 24 -1 30.2